createdAt,value
2022-09-26T00:00:06.720Z,4.10
2022-09-26T00:03:14.089Z,3.97
2022-09-26T00:06:18.094Z,4.70
2022-09-26T00:09:20.809Z,4.28
2022-09-26T00:12:22.518Z,4.50
2022-09-26T00:15:24.463Z,4.13
2022-09-26T00:18:26.342Z,4.47
2022-09-26T00:21:30.302Z,4.32
2022-09-26T00:24:32.229Z,4.30
2022-09-26T00:27:34.020Z,4.18
2022-09-26T00:30:37.207Z,4.32
2022-09-26T00:33:39.297Z,4.65
2022-09-26T00:36:41.471Z,4.80
2022-09-26T00:42:45.661Z,4.40
2022-09-26T00:45:47.773Z,4.30
2022-09-26T00:49:23.069Z,4.20
2022-09-26T00:52:39.286Z,4.75
2022-09-26T00:55:52.738Z,4.07
2022-09-26T00:59:04.401Z,4.40
2022-09-26T01:02:06.953Z,4.93
2022-09-26T01:05:12.769Z,4.90
2022-09-26T01:08:18.220Z,5.15
2022-09-26T01:11:21.891Z,4.75
2022-09-26T01:14:24.998Z,4.45
2022-09-26T01:17:28.520Z,4.40
2022-09-26T01:20:33.311Z,4.85
2022-09-26T01:24:04.791Z,4.25
2022-09-26T01:27:34.837Z,4.70
2022-09-26T01:30:48.261Z,4.65
2022-09-26T01:34:02.145Z,4.70
2022-09-26T01:40:39.973Z,4.80
2022-09-26T01:43:51.349Z,5.00
2022-09-26T01:47:13.606Z,5.20
2022-09-26T01:50:31.994Z,4.93
2022-09-26T01:53:50.789Z,4.20
2022-09-26T01:56:57.505Z,4.90
2022-09-26T02:00:04.195Z,5.75
2022-09-26T02:03:21.161Z,5.15
2022-09-26T02:06:29.987Z,6.57
2022-09-26T02:09:53.566Z,6.35
2022-09-26T02:13:19.618Z,5.38
2022-09-26T02:16:28.881Z,5.65
2022-09-26T02:19:43.455Z,6.20
2022-09-26T02:22:45.837Z,6.03
2022-09-26T02:25:50.039Z,5.95
2022-09-26T02:28:52.204Z,5.53
2022-09-26T02:31:58.502Z,5.50
2022-09-26T02:35:22.270Z,5.70
2022-09-26T02:38:27.729Z,6.00
2022-09-26T02:41:51.231Z,6.22
2022-09-26T02:45:09.508Z,5.82
2022-09-26T02:48:12.019Z,5.57
2022-09-26T02:51:27.443Z,5.05
2022-09-26T02:54:40.493Z,5.57
2022-09-26T03:01:27.620Z,5.22
2022-09-26T03:04:47.400Z,6.90
2022-09-26T03:07:52.893Z,5.57
2022-09-26T03:10:57.072Z,5.90
2022-09-26T03:14:00.719Z,5.45
2022-09-26T03:17:04.632Z,5.15
2022-09-26T03:20:20.082Z,5.18
2022-09-26T03:23:26.490Z,5.50
2022-09-26T03:26:32.752Z,5.63
2022-09-26T03:29:36.470Z,5.90
2022-09-26T03:32:40.597Z,5.93
2022-09-26T03:35:42.431Z,7.05
2022-09-26T03:38:44.434Z,7.68
2022-09-26T03:42:06.176Z,7.13
2022-09-26T03:45:13.227Z,7.35
2022-09-26T03:48:34.357Z,6.90
2022-09-26T03:51:37.158Z,7.30
2022-09-26T03:54:39.298Z,6.75
2022-09-26T03:57:41.119Z,6.73
2022-09-26T04:00:53.720Z,6.93
2022-09-26T04:03:56.807Z,6.93
2022-09-26T04:06:59.187Z,5.82
2022-09-26T04:10:01.423Z,5.07
2022-09-26T04:13:03.492Z,4.53
2022-09-26T04:16:07.633Z,4.77
2022-09-26T04:19:10.003Z,4.75
2022-09-26T04:22:12.025Z,5.25
2022-09-26T04:25:13.934Z,4.57
2022-09-26T04:28:16.149Z,4.63
2022-09-26T04:31:19.101Z,4.85
2022-09-26T04:34:27.604Z,4.80
2022-09-26T04:37:30.292Z,4.95
2022-09-26T04:40:32.307Z,5.30
2022-09-26T04:43:39.182Z,4.90
2022-09-26T04:46:44.583Z,5.13
2022-09-26T04:49:47.234Z,5.18
2022-09-26T04:52:48.945Z,5.70
2022-09-26T04:55:53.234Z,4.70
2022-09-26T04:58:56.633Z,6.00
2022-09-26T05:02:02.696Z,5.70
2022-09-26T05:05:10.673Z,6.47
2022-09-26T05:08:13.166Z,6.07
2022-09-26T05:11:17.041Z,6.00
2022-09-26T05:14:19.138Z,6.47
2022-09-26T05:17:24.323Z,6.20
2022-09-26T05:20:31.820Z,5.57
2022-09-26T05:23:57.426Z,5.55
2022-09-26T05:26:59.982Z,5.72
2022-09-26T05:30:01.828Z,5.45
2022-09-26T05:33:04.763Z,6.33
2022-09-26T05:36:08.445Z,5.72
2022-09-26T05:39:30.382Z,5.43
2022-09-26T05:42:32.437Z,5.70
2022-09-26T05:45:34.193Z,5.90
2022-09-26T05:48:38.944Z,5.60
2022-09-26T05:51:44.178Z,5.95
2022-09-26T05:54:51.103Z,5.65
2022-09-26T05:58:31.321Z,5.30
2022-09-26T06:01:51.491Z,5.55
2022-09-26T06:05:12.311Z,5.47
2022-09-26T06:08:14.291Z,5.03
2022-09-26T06:11:38.930Z,4.68
2022-09-26T06:14:46.846Z,4.30
2022-09-26T06:17:48.983Z,4.65
2022-09-26T06:20:51.195Z,4.32
2022-09-26T06:23:53.222Z,4.43
2022-09-26T06:26:56.625Z,4.50
2022-09-26T06:29:59.325Z,4.50
2022-09-26T06:33:01.785Z,4.07
2022-09-26T06:36:23.795Z,4.18
2022-09-26T06:39:35.695Z,4.20
2022-09-26T06:42:39.430Z,4.15
2022-09-26T06:46:00.021Z,4.30
2022-09-26T06:49:10.967Z,4.07
2022-09-26T06:52:17.316Z,3.92
2022-09-26T06:55:19.258Z,4.47
2022-09-26T06:58:21.459Z,3.90
2022-09-26T07:01:31.214Z,4.45
2022-09-26T07:05:05.744Z,4.97
2022-09-26T07:08:13.085Z,4.70
2022-09-26T07:11:35.195Z,5.57
2022-09-26T07:14:37.925Z,4.53
2022-09-26T07:17:50.333Z,5.60
2022-09-26T07:21:16.477Z,5.07
2022-09-26T07:24:20.748Z,4.72
2022-09-26T07:27:23.695Z,4.67
2022-09-26T07:30:26.371Z,5.03
2022-09-26T07:33:40.272Z,5.05
2022-09-26T07:36:43.285Z,5.00
2022-09-26T07:39:52.796Z,5.30
2022-09-26T07:43:18.490Z,5.63
2022-09-26T07:46:40.710Z,5.25
2022-09-26T07:50:01.036Z,4.65
2022-09-26T07:53:21.400Z,5.10
2022-09-26T07:56:58.506Z,5.32
2022-09-26T08:00:32.035Z,5.55
2022-09-26T08:03:58.345Z,5.05
2022-09-26T08:07:13.258Z,4.95
2022-09-26T08:13:46.644Z,5.22
2022-09-26T08:16:48.828Z,5.00
2022-09-26T08:19:51.419Z,4.97
2022-09-26T08:22:57.250Z,4.85
2022-09-26T08:25:59.436Z,5.50
2022-09-26T08:29:16.682Z,4.80
2022-09-26T08:32:21.243Z,5.20
2022-09-26T08:35:26.648Z,4.72
2022-09-26T08:38:51.574Z,4.78
2022-09-26T08:42:48.915Z,4.65
2022-09-26T08:46:30.282Z,4.70
2022-09-26T08:50:15.110Z,5.10
2022-09-26T08:53:22.815Z,4.97
2022-09-26T08:56:35.734Z,4.70
2022-09-26T08:59:46.801Z,4.60
2022-09-26T09:03:27.379Z,4.43
2022-09-26T09:06:30.533Z,4.68
2022-09-26T09:09:32.948Z,4.40
2022-09-26T09:13:07.237Z,4.95
2022-09-26T09:16:59.633Z,3.80
2022-09-26T09:20:51.509Z,3.72
2022-09-26T09:24:49.466Z,4.38
2022-09-26T09:28:08.037Z,3.72
2022-09-26T09:31:15.094Z,3.47
2022-09-26T09:34:39.165Z,3.30
2022-09-26T09:38:02.876Z,3.33
2022-09-26T09:41:32.458Z,3.72
2022-09-26T09:44:48.832Z,3.88
2022-09-26T09:47:51.551Z,3.40
2022-09-26T09:54:24.384Z,3.45
2022-09-26T09:57:52.541Z,3.15
2022-09-26T10:01:15.586Z,2.78
2022-09-26T10:04:32.531Z,3.10
2022-09-26T10:07:34.497Z,3.20
2022-09-26T10:11:29.554Z,2.40
2022-09-26T10:14:41.124Z,3.00
2022-09-26T10:17:56.037Z,2.93
2022-09-26T10:21:17.892Z,2.70
2022-09-26T10:24:34.455Z,2.83
2022-09-26T10:27:55.187Z,3.35
2022-09-26T10:31:04.050Z,3.53
2022-09-26T10:34:29.055Z,3.63
2022-09-26T10:37:31.200Z,3.03
2022-09-26T10:40:59.396Z,3.30
2022-09-26T10:44:03.803Z,3.10
2022-09-26T10:47:27.204Z,3.15
2022-09-26T10:50:52.363Z,3.60
2022-09-26T10:54:19.950Z,3.40
2022-09-26T10:57:33.594Z,2.90
2022-09-26T11:00:38.975Z,3.20
2022-09-26T11:04:50.330Z,2.80
2022-09-26T11:08:16.251Z,2.75
2022-09-26T11:11:33.303Z,3.10
2022-09-26T11:14:45.794Z,3.08
2022-09-26T11:20:52.614Z,3.15
2022-09-26T11:24:37.367Z,3.10
2022-09-26T11:28:23.999Z,3.38
2022-09-26T11:31:46.012Z,3.00
2022-09-26T11:35:42.136Z,3.40
2022-09-26T11:38:47.870Z,3.20
2022-09-26T11:42:17.308Z,3.42
2022-09-26T11:45:37.730Z,3.40
2022-09-26T11:49:13.156Z,3.30
2022-09-26T11:53:19.286Z,3.13
2022-09-26T11:56:50.105Z,3.65
2022-09-26T12:00:06.290Z,3.70
2022-09-26T12:03:59.163Z,4.10
2022-09-26T12:07:19.921Z,3.55
2022-09-26T12:10:27.236Z,3.65
2022-09-26T12:14:04.200Z,4.00
2022-09-26T12:17:19.612Z,3.78
2022-09-26T12:20:47.641Z,3.40
2022-09-26T12:23:57.236Z,3.60
2022-09-26T12:27:17.872Z,3.42
2022-09-26T12:30:31.380Z,3.70
2022-09-26T12:34:08.993Z,3.50
2022-09-26T12:37:23.416Z,3.58
2022-09-26T12:40:25.311Z,3.50
2022-09-26T12:43:55.495Z,3.50
2022-09-26T12:47:39.377Z,3.42
2022-09-26T12:51:05.702Z,3.50
2022-09-26T12:54:35.442Z,3.10
2022-09-26T12:58:00.829Z,3.33
2022-09-26T13:01:24.789Z,4.03
2022-09-26T13:04:45.503Z,4.03
2022-09-26T13:08:23.187Z,3.58
2022-09-26T13:12:04.471Z,3.83
2022-09-26T13:15:47.487Z,4.85
2022-09-26T13:22:02.944Z,4.60
2022-09-26T13:25:20.816Z,4.32
2022-09-26T13:28:30.459Z,4.72
2022-09-26T13:31:52.787Z,4.57
2022-09-26T13:35:02.866Z,4.28
2022-09-26T13:38:23.120Z,4.22
2022-09-26T13:41:48.804Z,4.90
2022-09-26T13:44:59.252Z,4.43
2022-09-26T13:48:10.346Z,6.88
2022-09-26T13:51:21.242Z,4.72
2022-09-26T13:54:41.489Z,5.22
2022-09-26T13:57:52.440Z,4.75
2022-09-26T14:00:54.805Z,4.88
2022-09-26T14:04:19.796Z,5.30
2022-09-26T14:08:05.249Z,4.95
2022-09-26T14:11:24.532Z,5.28
2022-09-26T14:14:42.692Z,5.13
2022-09-26T14:17:44.501Z,4.90
2022-09-26T14:21:23.711Z,6.05
2022-09-26T14:24:41.837Z,6.85
2022-09-26T14:27:43.972Z,7.10
2022-09-26T14:31:22.171Z,6.43
2022-09-26T14:34:28.344Z,6.45
2022-09-26T14:37:37.989Z,6.22
2022-09-26T14:40:55.830Z,7.00
2022-09-26T14:44:04.482Z,7.15
2022-09-26T14:47:15.172Z,7.90
2022-09-26T14:50:25.937Z,9.20
2022-09-26T14:53:42.998Z,10.13
2022-09-26T14:56:48.938Z,10.18
2022-09-26T14:59:51.048Z,10.35
2022-09-26T15:03:00.815Z,10.45
2022-09-26T15:06:08.835Z,14.30
2022-09-26T15:09:12.803Z,17.25
2022-09-26T15:12:22.781Z,24.55
2022-09-26T15:16:03.513Z,22.83
2022-09-26T15:19:33.414Z,21.38
2022-09-26T15:22:35.695Z,19.13
2022-09-26T15:25:38.960Z,20.98
2022-09-26T15:28:40.773Z,20.10
2022-09-26T15:31:44.603Z,21.00
2022-09-26T15:34:47.441Z,48.85
2022-09-26T15:37:49.612Z,26.60
2022-09-26T15:44:07.118Z,19.30
2022-09-26T15:47:31.977Z,18.25
2022-09-26T15:50:49.178Z,21.08
2022-09-26T15:54:01.410Z,22.38
2022-09-26T15:57:08.112Z,21.77
2022-09-26T16:00:14.803Z,21.13
2022-09-26T16:03:39.583Z,20.70
2022-09-26T16:06:52.690Z,21.88
2022-09-26T16:09:56.181Z,16.95
2022-09-26T16:12:59.293Z,17.30
2022-09-26T16:16:04.239Z,18.33
2022-09-26T16:19:06.209Z,18.85
2022-09-26T16:22:21.808Z,15.27
2022-09-26T16:25:51.232Z,11.40
2022-09-26T16:28:53.810Z,10.40
2022-09-26T16:35:23.900Z,8.48
2022-09-26T16:38:39.806Z,10.75
2022-09-26T16:42:03.252Z,13.52
2022-09-26T16:45:06.132Z,13.05
2022-09-26T16:51:38.892Z,10.30
2022-09-26T16:54:41.438Z,12.27
2022-09-26T16:57:56.765Z,12.60
2022-09-26T17:01:17.374Z,9.88
2022-09-26T17:04:24.857Z,9.30
2022-09-26T17:07:26.781Z,8.15
2022-09-26T17:10:30.338Z,10.20
2022-09-26T17:13:37.631Z,12.65
2022-09-26T17:16:39.603Z,12.05
2022-09-26T17:19:44.808Z,13.20
2022-09-26T17:22:46.781Z,12.50
2022-09-26T17:25:54.086Z,12.45
2022-09-26T17:28:59.430Z,12.32
2022-09-26T17:32:09.680Z,13.68
2022-09-26T17:35:21.818Z,11.40
2022-09-26T17:38:24.901Z,11.00
2022-09-26T17:41:29.856Z,14.18
2022-09-26T17:44:32.912Z,13.13
2022-09-26T17:47:36.488Z,11.93
2022-09-26T17:50:40.577Z,11.63
2022-09-26T17:53:50.931Z,11.23
2022-09-26T17:56:55.278Z,11.23
2022-09-26T17:59:58.846Z,11.38
2022-09-26T18:03:07.665Z,11.10
2022-09-26T18:06:11.439Z,9.57
2022-09-26T18:09:16.892Z,9.02
2022-09-26T18:12:22.059Z,8.75
2022-09-26T18:15:25.866Z,7.95
2022-09-26T18:18:32.255Z,7.20
2022-09-26T18:21:36.465Z,7.35
2022-09-26T18:24:38.371Z,7.35
2022-09-26T18:27:41.206Z,7.20
2022-09-26T18:30:53.263Z,7.72
2022-09-26T18:34:00.328Z,6.85
2022-09-26T18:37:03.128Z,7.80
2022-09-26T18:43:21.577Z,7.23
2022-09-26T18:46:23.884Z,7.22
2022-09-26T18:49:26.838Z,7.82
2022-09-26T18:52:30.257Z,7.30
2022-09-26T18:55:50.717Z,7.10
2022-09-26T18:58:54.634Z,9.50
2022-09-26T19:01:59.731Z,7.90
2022-09-26T19:05:05.594Z,6.60
2022-09-26T19:08:41.039Z,7.03
2022-09-26T19:11:44.122Z,7.03
2022-09-26T19:14:47.153Z,7.90
2022-09-26T19:17:50.698Z,7.35
2022-09-26T19:20:56.344Z,7.50
2022-09-26T19:24:08.522Z,8.50
2022-09-26T19:27:24.273Z,8.60
2022-09-26T19:30:26.592Z,8.70
2022-09-26T19:33:30.734Z,8.90
2022-09-26T19:36:32.636Z,9.18
2022-09-26T19:39:39.735Z,9.25
2022-09-26T19:42:42.518Z,9.82
2022-09-26T19:45:47.520Z,10.27
2022-09-26T19:48:49.445Z,10.90
2022-09-26T19:51:51.393Z,9.57
2022-09-26T19:54:54.289Z,9.48
2022-09-26T19:58:11.891Z,9.95
2022-09-26T20:01:22.367Z,9.00
2022-09-26T20:04:24.292Z,10.05
2022-09-26T20:07:27.723Z,10.43
2022-09-26T20:10:29.526Z,10.07
2022-09-26T20:13:51.515Z,10.50
2022-09-26T20:17:00.639Z,9.98
2022-09-26T20:20:03.822Z,10.27
2022-09-26T20:23:19.138Z,11.60
2022-09-26T20:26:21.228Z,10.90
2022-09-26T20:29:24.434Z,11.52
2022-09-26T20:32:26.609Z,12.88
2022-09-26T20:35:35.255Z,13.57
2022-09-26T20:38:48.340Z,12.30
2022-09-26T20:41:51.378Z,13.20
2022-09-26T20:44:56.229Z,13.00
2022-09-26T20:47:59.551Z,14.55
2022-09-26T20:51:02.847Z,13.68
2022-09-26T20:54:06.560Z,14.55
2022-09-26T20:57:08.286Z,14.68
2022-09-26T21:00:20.050Z,14.23
2022-09-26T21:03:25.591Z,14.65
2022-09-26T21:06:33.285Z,14.50
2022-09-26T21:09:34.987Z,14.18
2022-09-26T21:12:36.801Z,14.20
2022-09-26T21:15:41.506Z,14.97
2022-09-26T21:18:45.158Z,15.43
2022-09-26T21:21:46.999Z,14.57
2022-09-26T21:24:54.123Z,15.40
2022-09-26T21:27:58.670Z,14.52
2022-09-26T21:31:05.243Z,14.38
2022-09-26T21:34:13.436Z,12.15
2022-09-26T21:37:15.245Z,11.98
2022-09-26T21:40:18.131Z,12.40
2022-09-26T21:43:24.989Z,11.48
2022-09-26T21:46:27.467Z,11.43
2022-09-26T21:49:30.436Z,10.27
2022-09-26T21:52:47.076Z,10.27
2022-09-26T21:55:55.099Z,10.57
2022-09-26T21:58:57.317Z,10.52
2022-09-26T22:01:59.121Z,9.50
2022-09-26T22:05:01.030Z,9.67
2022-09-26T22:08:03.142Z,8.95
2022-09-26T22:11:06.269Z,9.00
2022-09-26T22:14:08.056Z,9.13
2022-09-26T22:17:09.908Z,9.20
2022-09-26T22:20:11.841Z,9.37
2022-09-26T22:23:13.563Z,8.33
2022-09-26T22:26:15.336Z,7.80
2022-09-26T22:29:17.113Z,7.55
2022-09-26T22:32:18.829Z,7.68
2022-09-26T22:35:20.615Z,7.35
2022-09-26T22:38:22.375Z,7.45
2022-09-26T22:41:24.175Z,7.75
2022-09-26T22:44:25.984Z,6.63
2022-09-26T22:47:28.151Z,6.77
2022-09-26T22:50:30.009Z,6.85
2022-09-26T22:53:33.630Z,6.70
2022-09-26T22:56:35.422Z,6.70
2022-09-26T22:59:38.421Z,6.95
2022-09-26T23:02:40.237Z,6.38
2022-09-26T23:05:42.040Z,7.20
2022-09-26T23:08:43.761Z,6.78
2022-09-26T23:11:47.105Z,5.97
2022-09-26T23:14:48.943Z,6.78
2022-09-26T23:17:50.724Z,6.77
2022-09-26T23:20:52.783Z,6.30
2022-09-26T23:23:57.272Z,6.43
2022-09-26T23:26:59.885Z,5.57
2022-09-26T23:30:01.978Z,6.15
2022-09-26T23:33:04.348Z,6.18
2022-09-26T23:36:07.270Z,5.35
2022-09-26T23:39:09.136Z,5.70
2022-09-26T23:42:11.534Z,5.90
2022-09-26T23:45:13.554Z,5.70
2022-09-26T23:48:16.101Z,5.93
2022-09-26T23:51:17.921Z,5.88
2022-09-26T23:54:19.678Z,5.23
2022-09-26T23:57:22.756Z,5.70
